Time;durP1;ratioP1;P1;durP2;ratioP2;P2;SDS_P1;SDS_P2;PMS_P1;PMS_P2;Temp;Humidity;BMP_temperature;BMP_pressure;BME280_temperature;BME280_humidity;BME280_pressure;Samples;Min_cycle;Max_cycle;Signal;HPM_P1;HPM_P2
2020/12/05 00:00:27;;;;;;;12.73;7.23;;;5.90;97.20;;;;;;5007188;28;20596;-68
2020/12/05 00:02:53;;;;;;;14.47;8.17;;;6.00;96.90;;;;;;5007863;28;20215;-68
2020/12/05 00:05:18;;;;;;;16.50;9.70;;;5.90;96.20;;;;;;5005711;28;20184;-68
2020/12/05 00:07:44;;;;;;;15.33;10.00;;;5.90;95.70;;;;;;5007840;28;20204;-69
2020/12/05 00:10:10;;;;;;;17.07;8.90;;;5.70;95.30;;;;;;5000416;28;20213;-68
2020/12/05 00:12:36;;;;;;;17.77;9.27;;;5.60;95.90;;;;;;4997484;28;20216;-68
2020/12/05 00:15:02;;;;;;;16.87;9.37;;;5.50;95.90;;;;;;5030265;28;20235;-69
2020/12/05 00:17:28;;;;;;;16.47;9.70;;;5.40;95.80;;;;;;4991986;28;20205;-68
2020/12/05 00:19:53;;;;;;;18.20;9.93;;;5.40;95.40;;;;;;5000077;28;20193;-68
2020/12/05 00:22:19;;;;;;;16.20;8.83;;;5.40;95.70;;;;;;4991783;28;20235;-68
2020/12/05 00:24:45;;;;;;;12.17;8.83;;;5.30;95.90;;;;;;5039668;28;20191;-69
2020/12/05 00:27:11;;;;;;;15.30;9.33;;;5.20;95.90;;;;;;5007367;28;20220;-68
2020/12/05 00:29:37;;;;;;;14.47;8.33;;;5.10;96.00;;;;;;5007337;28;20220;-68
2020/12/05 00:32:06;;;;;;;13.10;9.00;;;5.20;96.20;;;;;;5006234;28;20296;-68
2020/12/05 00:34:31;;;;;;;16.03;8.60;;;5.10;96.10;;;;;;5017201;28;20243;-68
2020/12/05 00:36:57;;;;;;;14.07;8.63;;;5.10;96.20;;;;;;5019991;28;20204;-68
2020/12/05 00:39:23;;;;;;;15.20;8.17;;;5.20;96.10;;;;;;4990131;28;20184;-68
2020/12/05 00:41:52;;;;;;;14.03;8.73;;;5.20;96.20;;;;;;4989410;28;20719;-68
2020/12/05 00:44:18;;;;;;;14.00;8.47;;;5.10;96.20;;;;;;5006005;28;20599;-69
2020/12/05 00:46:44;;;;;;;14.27;8.07;;;5.10;96.30;;;;;;5006760;28;20213;-68
2020/12/05 00:49:10;;;;;;;14.83;8.37;;;5.20;96.20;;;;;;5008603;28;20189;-69
2020/12/05 00:51:35;;;;;;;16.83;7.70;;;5.20;96.20;;;;;;5023560;28;20208;-68
2020/12/05 00:54:01;;;;;;;10.17;7.57;;;5.20;96.40;;;;;;5011546;28;20681;-68
2020/12/05 00:56:27;;;;;;;16.13;8.07;;;5.10;96.30;;;;;;5009016;28;20251;-68
2020/12/05 00:58:53;;;;;;;17.27;7.90;;;5.10;96.40;;;;;;5009915;28;20173;-69
2020/12/05 01:01:19;;;;;;;11.50;8.20;;;5.10;96.50;;;;;;5007014;28;20208;-68
2020/12/05 01:03:44;;;;;;;12.87;7.97;;;5.10;96.80;;;;;;5004155;28;20195;-68
2020/12/05 01:06:14;;;;;;;12.70;7.13;;;5.10;97.10;;;;;;5039711;28;20204;-68
2020/12/05 01:08:44;;;;;;;12.07;7.27;;;5.10;96.60;;;;;;5005292;28;20188;-69
2020/12/05 01:11:14;;;;;;;13.50;7.53;;;5.00;96.50;;;;;;5037616;28;20606;-68
2020/12/05 01:13:41;;;;;;;16.13;7.70;;;5.00;96.70;;;;;;5001132;28;20212;-68
2020/12/05 01:16:10;;;;;;;16.33;7.67;;;5.00;97.10;;;;;;4991869;28;20206;-68
2020/12/05 01:18:36;;;;;;;12.53;7.47;;;4.90;97.00;;;;;;5040937;28;20181;-68
2020/12/05 01:21:02;;;;;;;9.00;6.10;;;4.90;97.20;;;;;;4996640;28;20486;-68
2020/12/05 01:23:27;;;;;;;14.83;7.43;;;4.80;97.30;;;;;;4991318;28;20185;-68
2020/12/05 01:25:53;;;;;;;11.17;7.30;;;4.80;97.30;;;;;;5006586;28;20597;-68
2020/12/05 01:28:19;;;;;;;13.73;8.10;;;4.80;97.20;;;;;;5017306;28;20666;-68
2020/12/05 01:30:44;;;;;;;9.83;6.67;;;4.80;97.00;;;;;;5011447;28;20542;-68
2020/12/05 01:33:10;;;;;;;10.13;6.80;;;4.80;96.70;;;;;;5000316;28;20511;-68
2020/12/05 01:35:36;;;;;;;9.83;6.83;;;4.80;96.40;;;;;;5010323;28;20622;-69
2020/12/05 01:38:01;;;;;;;9.73;7.10;;;4.80;96.20;;;;;;4995610;28;20205;-68
2020/12/05 01:40:27;;;;;;;9.10;6.50;;;4.70;96.50;;;;;;5006686;28;20218;-68
2020/12/05 01:42:53;;;;;;;9.17;6.93;;;4.70;96.50;;;;;;5008153;28;20236;-68
2020/12/05 01:45:18;;;;;;;12.80;7.00;;;4.70;97.50;;;;;;5010119;28;20195;-68
2020/12/05 01:47:44;;;;;;;11.50;7.33;;;4.70;97.20;;;;;;5010710;28;20201;-68
2020/12/05 01:50:10;;;;;;;11.57;7.13;;;4.60;97.40;;;;;;5005464;28;20198;-68
2020/12/05 01:52:37;;;;;;;10.37;6.87;;;4.60;97.40;;;;;;4998227;28;20815;-68
2020/12/05 01:55:05;;;;;;;11.67;6.83;;;4.60;97.60;;;;;;4990966;28;20468;-68
2020/12/05 01:57:31;;;;;;;8.03;6.67;;;4.60;97.60;;;;;;5022092;28;20196;-68
2020/12/05 01:59:57;;;;;;;11.50;6.67;;;4.60;97.40;;;;;;5030930;28;20185;-68
2020/12/05 02:02:23;;;;;;;10.17;6.63;;;4.60;97.00;;;;;;5007287;28;20205;-68
2020/12/05 02:05:04;;;;;;;9.73;7.23;;;4.60;97.20;;;;;;5008817;28;20288;-69
2020/12/05 02:07:55;;;;;;;10.43;7.07;;;4.60;97.80;;;;;;5004724;28;20373;-68
2020/12/05 02:10:26;;;;;;;13.43;7.73;;;4.60;97.50;;;;;;5008804;28;20188;-68
2020/12/05 02:13:06;;;;;;;11.10;7.03;;;4.60;97.10;;;;;;5005596;28;20228;-68
2020/12/05 02:15:33;;;;;;;10.77;6.10;;;4.60;97.10;;;;;;5022439;28;20288;-68
2020/12/05 02:18:02;;;;;;;11.10;7.37;;;4.60;97.40;;;;;;5005781;28;20263;-68
2020/12/05 02:20:29;;;;;;;9.90;6.57;;;4.50;97.80;;;;;;5004794;28;20196;-68
2020/12/05 02:22:56;;;;;;;13.87;6.90;;;4.40;97.40;;;;;;5009733;28;20205;-68
2020/12/05 02:25:22;;;;;;;7.90;7.03;;;4.40;97.60;;;;;;5006033;28;20193;-69
2020/12/05 02:27:48;;;;;;;8.53;6.17;;;4.40;97.80;;;;;;4992142;28;20236;-68
2020/12/05 02:30:14;;;;;;;7.47;6.50;;;4.40;97.80;;;;;;4997302;28;20192;-69
2020/12/05 02:32:39;;;;;;;12.03;7.07;;;4.40;98.50;;;;;;4996339;28;20232;-68
2020/12/05 02:35:06;;;;;;;7.20;6.00;;;4.40;98.10;;;;;;5009513;28;20646;-69
2020/12/05 02:37:38;;;;;;;8.53;6.43;;;4.40;97.80;;;;;;5004907;28;20201;-68
2020/12/05 02:40:04;;;;;;;9.13;6.50;;;4.40;97.60;;;;;;5001735;28;20513;-68
2020/12/05 02:42:30;;;;;;;9.10;6.63;;;4.40;97.30;;;;;;5004447;28;20520;-69
2020/12/05 02:44:56;;;;;;;10.80;6.03;;;4.40;97.40;;;;;;4996750;28;20183;-69
2020/12/05 02:47:22;;;;;;;7.73;5.80;;;4.30;97.40;;;;;;5009301;28;20201;-69
2020/12/05 02:49:48;;;;;;;6.07;5.53;;;4.30;97.50;;;;;;4999101;28;20218;-69
2020/12/05 02:52:14;;;;;;;9.57;6.23;;;4.40;97.60;;;;;;5008840;28;20283;-69
2020/12/05 02:54:40;;;;;;;6.90;5.13;;;4.30;97.50;;;;;;5001351;28;20196;-69
2020/12/05 02:57:05;;;;;;;6.57;5.37;;;4.30;97.70;;;;;;4991804;28;20608;-69
2020/12/05 02:59:31;;;;;;;7.10;4.43;;;4.30;97.80;;;;;;4993129;28;20216;-69
2020/12/05 03:01:57;;;;;;;7.50;5.93;;;4.30;97.50;;;;;;5004292;28;20277;-68
2020/12/05 03:04:23;;;;;;;8.37;5.30;;;4.20;97.80;;;;;;4989512;28;20184;-69
2020/12/05 03:06:49;;;;;;;7.50;5.07;;;4.20;98.40;;;;;;5001211;28;20205;-69
2020/12/05 03:09:15;;;;;;;8.97;5.73;;;4.20;98.00;;;;;;5006025;28;21361;-69
2020/12/05 03:11:41;;;;;;;8.07;6.27;;;4.20;97.50;;;;;;5031171;28;20213;-69
2020/12/05 03:14:08;;;;;;;12.37;6.93;;;4.20;97.20;;;;;;4993469;28;20201;-69
2020/12/05 03:16:34;;;;;;;6.10;5.50;;;4.10;97.10;;;;;;4989075;28;20185;-69
2020/12/05 03:19:00;;;;;;;10.90;5.30;;;4.10;97.10;;;;;;4989113;28;20584;-69
2020/12/05 03:21:26;;;;;;;9.17;5.67;;;4.00;97.30;;;;;;4996551;28;20366;-69
2020/12/05 03:23:53;;;;;;;5.03;4.57;;;4.00;97.50;;;;;;5007985;28;20181;-69
2020/12/05 03:26:19;;;;;;;8.53;5.87;;;4.00;97.50;;;;;;4993202;28;20213;-69
2020/12/05 03:28:44;;;;;;;8.97;6.27;;;4.00;98.20;;;;;;4999636;28;20263;-69
2020/12/05 03:31:22;;;;;;;9.73;6.10;;;4.00;97.90;;;;;;4999532;28;20215;-69
2020/12/05 03:33:48;;;;;;;5.77;4.90;;;3.90;97.80;;;;;;5008173;28;20216;-69
2020/12/05 03:36:17;;;;;;;8.00;5.90;;;3.90;97.80;;;;;;5004131;28;20205;-70
2020/12/05 03:38:46;;;;;;;7.10;6.07;;;4.00;97.70;;;;;;5006455;28;20195;-69
2020/12/05 03:41:12;;;;;;;10.23;6.07;;;3.90;97.90;;;;;;5003995;28;20343;-70
2020/12/05 03:43:38;;;;;;;10.13;5.97;;;3.90;98.30;;;;;;5007978;28;20216;-69
2020/12/05 03:46:04;;;;;;;8.17;4.97;;;3.90;98.40;;;;;;5006179;28;20528;-69
2020/12/05 03:48:29;;;;;;;6.53;4.87;;;3.90;98.50;;;;;;4994011;28;20520;-69
2020/12/05 03:50:55;;;;;;;10.00;5.30;;;4.00;98.50;;;;;;5006684;28;20214;-69
2020/12/05 03:53:20;;;;;;;7.37;5.07;;;4.00;98.50;;;;;;4991723;28;20245;-70
2020/12/05 03:55:46;;;;;;;8.53;5.30;;;4.10;98.50;;;;;;5003957;28;20181;-69
2020/12/05 03:58:12;;;;;;;6.03;5.43;;;4.10;98.50;;;;;;4996755;28;20184;-69
2020/12/05 04:00:37;;;;;;;5.57;4.57;;;4.10;98.50;;;;;;4996335;28;20190;-69
2020/12/05 04:03:03;;;;;;;6.80;5.23;;;4.10;98.50;;;;;;5005742;28;20706;-70
2020/12/05 04:05:29;;;;;;;7.80;5.33;;;4.10;98.50;;;;;;5001725;28;20612;-69
2020/12/05 04:07:54;;;;;;;9.20;5.27;;;4.20;98.50;;;;;;5002671;28;20583;-69
2020/12/05 04:10:20;;;;;;;8.00;5.33;;;4.20;98.50;;;;;;5006467;28;20747;-69
2020/12/05 04:12:45;;;;;;;6.90;4.67;;;4.20;98.50;;;;;;5006375;28;20209;-69
2020/12/05 04:15:11;;;;;;;7.27;4.87;;;4.30;98.50;;;;;;5007485;28;20199;-69
2020/12/05 04:17:37;;;;;;;5.77;4.77;;;4.30;98.50;;;;;;4990462;28;20288;-69
2020/12/05 04:20:03;;;;;;;11.03;5.90;;;4.30;98.20;;;;;;5008604;28;20181;-69
2020/12/05 04:22:28;;;;;;;11.93;4.97;;;4.30;98.30;;;;;;5008025;28;20197;-69
2020/12/05 04:24:54;;;;;;;4.67;3.97;;;4.20;98.40;;;;;;5012091;28;20181;-69
2020/12/05 04:27:21;;;;;;;7.80;4.80;;;4.20;98.30;;;;;;4997004;28;20291;-69
2020/12/05 04:29:47;;;;;;;7.03;4.33;;;4.20;98.30;;;;;;5013472;28;20185;-69
2020/12/05 04:32:13;;;;;;;5.47;4.37;;;4.20;98.30;;;;;;4999991;28;20212;-69
2020/12/05 04:34:38;;;;;;;6.30;4.97;;;4.20;98.50;;;;;;5005663;28;20192;-69
2020/12/05 04:37:04;;;;;;;5.23;4.17;;;4.30;98.40;;;;;;4997562;28;20713;-69
2020/12/05 04:39:30;;;;;;;10.27;4.77;;;4.30;98.20;;;;;;5010597;28;20543;-69
2020/12/05 04:41:55;;;;;;;6.60;4.90;;;4.20;98.20;;;;;;5005840;28;20593;-69
2020/12/05 04:44:21;;;;;;;5.50;4.03;;;4.20;98.30;;;;;;5006012;28;20524;-69
2020/12/05 04:46:48;;;;;;;8.43;4.90;;;4.20;98.50;;;;;;5000337;28;20213;-69
2020/12/05 04:49:14;;;;;;;7.27;5.20;;;4.20;98.50;;;;;;5008378;28;20185;-69
2020/12/05 04:51:49;;;;;;;7.97;5.30;;;4.20;98.50;;;;;;4996498;28;20643;-69
2020/12/05 04:54:25;;;;;;;6.07;4.90;;;4.20;98.50;;;;;;5011079;28;20272;-69
2020/12/05 04:56:54;;;;;;;4.50;4.03;;;4.20;98.50;;;;;;5033410;28;20550;-69
2020/12/05 04:59:20;;;;;;;7.23;5.97;;;4.30;98.50;;;;;;4992938;28;20213;-70
2020/12/05 05:01:51;;;;;;;7.37;4.53;;;4.30;98.50;;;;;;5005180;28;20287;-69
2020/12/05 05:04:17;;;;;;;8.07;4.53;;;4.40;98.50;;;;;;5010389;28;20217;-69
2020/12/05 05:06:43;;;;;;;5.00;4.33;;;4.40;98.50;;;;;;5037752;28;20212;-69
2020/12/05 05:09:11;;;;;;;8.23;4.60;;;4.40;98.50;;;;;;5003528;28;20228;-70
2020/12/05 05:11:39;;;;;;;7.10;5.43;;;4.30;98.50;;;;;;5022817;28;20525;-68
2020/12/05 05:14:13;;;;;;;6.57;5.43;;;4.30;98.40;;;;;;4991671;28;20214;-68
2020/12/05 05:16:42;;;;;;;6.67;4.80;;;4.30;98.50;;;;;;4993881;28;20290;-70
2020/12/05 05:19:22;;;;;;;5.57;5.03;;;4.30;98.20;;;;;;5004772;28;20181;-67
2020/12/05 05:21:49;;;;;;;5.77;4.90;;;4.30;97.90;;;;;;4997832;28;20197;-67
2020/12/05 05:24:17;;;;;;;5.73;5.17;;;4.30;98.10;;;;;;5008388;28;20219;-68
2020/12/05 05:26:44;;;;;;;7.90;5.60;;;4.40;98.50;;;;;;5001827;28;20600;-68
2020/12/05 05:29:33;;;;;;;7.77;5.33;;;4.40;98.50;;;;;;5008266;28;20224;-68
2020/12/05 05:34:27;;;;;;;5.97;4.67;;;4.40;98.50;;;;;;5009896;28;20299;-68
2020/12/05 05:36:53;;;;;;;6.33;5.03;;;4.50;98.50;;;;;;5007077;28;20320;-69
2020/12/05 05:39:19;;;;;;;7.80;4.83;;;4.50;98.50;;;;;;5002675;28;20181;-69
2020/12/05 05:41:47;;;;;;;7.90;4.80;;;4.50;98.50;;;;;;5008115;28;20631;-68
2020/12/05 05:44:15;;;;;;;10.70;5.53;;;4.50;98.50;;;;;;5006131;28;20486;-68
2020/12/05 05:46:42;;;;;;;7.60;4.73;;;4.50;98.50;;;;;;5023429;28;20266;-68
2020/12/05 05:49:10;;;;;;;9.30;5.20;;;4.40;98.50;;;;;;5019078;28;20216;-68
2020/12/05 05:51:49;;;;;;;9.10;5.37;;;4.40;98.50;;;;;;5008336;28;20205;-68
2020/12/05 05:54:29;;;;;;;7.80;5.67;;;4.40;98.50;;;;;;5009815;28;20204;-69
2020/12/05 05:57:13;;;;;;;7.40;6.00;;;4.40;98.50;;;;;;4998653;28;20210;-69
2020/12/05 05:59:45;;;;;;;10.93;4.70;;;4.40;98.50;;;;;;5003585;28;20173;-69
2020/12/05 06:02:13;;;;;;;5.20;3.47;;;4.40;98.50;;;;;;5005386;28;20208;-69
2020/12/05 06:04:40;;;;;;;5.20;4.17;;;4.50;98.50;;;;;;4996584;28;20192;-69
2020/12/05 06:07:09;;;;;;;3.53;2.97;;;4.50;98.50;;;;;;5003430;28;20203;-69
2020/12/05 06:09:46;;;;;;;5.03;3.67;;;4.60;98.50;;;;;;4999906;28;20192;-69
2020/12/05 06:12:18;;;;;;;3.80;3.50;;;4.70;98.50;;;;;;5006740;28;20204;-68
2020/12/05 06:14:44;;;;;;;3.03;2.83;;;4.80;98.50;;;;;;5011353;28;20202;-68
2020/12/05 06:17:10;;;;;;;4.50;3.27;;;4.90;98.50;;;;;;5006468;28;20236;-69
2020/12/05 06:19:40;;;;;;;3.83;3.53;;;5.00;98.50;;;;;;4999408;28;20185;-68
2020/12/05 06:22:28;;;;;;;4.70;3.13;;;5.20;98.50;;;;;;5009056;28;20204;-68
2020/12/05 06:25:00;;;;;;;2.80;2.60;;;5.20;98.50;;;;;;5025041;28;20296;-68
2020/12/05 06:27:26;;;;;;;2.53;2.40;;;5.40;98.50;;;;;;5024522;28;20216;-68
2020/12/05 06:29:53;;;;;;;3.37;2.90;;;5.50;98.50;;;;;;5000036;28;20220;-68
2020/12/05 06:32:43;;;;;;;2.47;2.37;;;5.60;98.50;;;;;;5017178;28;20235;-68
2020/12/05 06:35:21;;;;;;;3.23;3.03;;;5.70;98.50;;;;;;5007355;28;20200;-68
2020/12/05 06:37:48;;;;;;;3.40;3.13;;;5.80;98.50;;;;;;5021619;28;20484;-69
2020/12/05 06:40:14;;;;;;;3.00;2.80;;;5.90;98.50;;;;;;5008587;28;20184;-69
2020/12/05 06:42:45;;;;;;;3.13;2.87;;;6.00;98.50;;;;;;5008540;28;20215;-69
2020/12/05 06:45:26;;;;;;;2.97;2.77;;;6.10;98.50;;;;;;5005424;28;20176;-68
2020/12/05 06:48:15;;;;;;;2.67;2.50;;;6.20;98.50;;;;;;5024643;28;20296;-69
2020/12/05 06:50:43;;;;;;;4.03;3.30;;;6.30;98.50;;;;;;5005320;28;20185;-69
2020/12/05 06:53:20;;;;;;;3.27;2.97;;;6.40;98.50;;;;;;5009291;28;20665;-69
2020/12/05 06:55:47;;;;;;;3.27;3.07;;;6.50;98.50;;;;;;5024859;28;20286;-68
2020/12/05 06:58:13;;;;;;;6.30;4.73;;;6.60;98.50;;;;;;5025772;28;20204;-68
2020/12/05 07:00:40;;;;;;;4.67;3.17;;;6.70;98.40;;;;;;5008815;28;20238;-69
2020/12/05 07:03:10;;;;;;;3.97;3.57;;;6.80;98.10;;;;;;5001671;28;20217;-69
2020/12/05 07:05:46;;;;;;;4.23;3.37;;;6.90;97.90;;;;;;5006083;28;20215;-68
2020/12/05 07:08:25;;;;;;;4.73;4.03;;;7.00;98.20;;;;;;5006498;28;20670;-69
2020/12/05 07:10:56;;;;;;;4.40;4.00;;;7.20;98.50;;;;;;5006277;28;20184;-69
2020/12/05 07:13:51;;;;;;;5.37;4.53;;;7.60;98.10;;;;;;5003649;28;20291;-69
2020/12/05 07:16:19;;;;;;;4.80;4.30;;;8.00;97.10;;;;;;5003862;28;20311;-69
2020/12/05 07:18:49;;;;;;;6.37;4.93;;;8.40;96.20;;;;;;5007551;28;20196;-68
2020/12/05 07:21:15;;;;;;;4.13;3.83;;;8.80;94.80;;;;;;5004904;28;20579;-69
2020/12/05 07:23:41;;;;;;;5.77;4.27;;;9.10;92.50;;;;;;5037432;28;20181;-70
2020/12/05 07:26:07;;;;;;;5.30;4.80;;;9.50;92.10;;;;;;5005309;28;20221;-69
2020/12/05 07:28:34;;;;;;;7.10;5.60;;;10.00;92.40;;;;;;5006788;28;20204;-70
2020/12/05 07:31:00;;;;;;;9.03;6.07;;;10.60;89.70;;;;;;5006034;28;20250;-69
2020/12/05 07:33:28;;;;;;;9.48;6.57;;;11.20;87.90;;;;;;5005956;28;20588;-70
2020/12/05 07:36:02;;;;;;;6.47;5.90;;;11.70;85.80;;;;;;5006180;28;20654;-70
2020/12/05 07:38:30;;;;;;;9.50;6.60;;;12.30;83.40;;;;;;5006925;28;20592;-70
2020/12/05 07:40:56;;;;;;;8.20;6.53;;;12.70;81.50;;;;;;5007005;28;20195;-68
2020/12/05 07:43:22;;;;;;;7.65;6.50;;;12.80;81.00;;;;;;5005556;28;20189;-67
2020/12/05 07:45:51;;;;;;;5.95;5.18;;;12.90;80.30;;;;;;5006873;28;20187;-67
2020/12/05 07:48:19;;;;;;;4.97;4.50;;;12.90;80.00;;;;;;5005097;28;20189;-67
2020/12/05 07:50:46;;;;;;;4.90;4.43;;;13.10;80.60;;;;;;5006053;28;20181;-66
2020/12/05 07:53:22;;;;;;;4.95;4.65;;;13.30;80.30;;;;;;5005976;28;20295;-68
2020/12/05 07:55:48;;;;;;;6.22;4.95;;;13.50;78.50;;;;;;5004930;28;20196;-68
2020/12/05 07:58:14;;;;;;;5.15;4.65;;;13.80;78.30;;;;;;5006367;28;20212;-68
2020/12/05 08:00:40;;;;;;;5.18;4.63;;;14.10;78.10;;;;;;5006249;28;20627;-68
2020/12/05 08:03:21;;;;;;;4.43;4.05;;;14.30;77.00;;;;;;5005735;28;20201;-68
2020/12/05 08:05:54;;;;;;;4.25;3.95;;;14.60;77.20;;;;;;5006382;28;20196;-68
2020/12/05 08:08:20;;;;;;;4.30;4.00;;;14.90;75.90;;;;;;5007192;28;20240;-68
2020/12/05 08:10:46;;;;;;;3.72;3.53;;;15.30;74.90;;;;;;5006925;28;20181;-68
2020/12/05 08:13:19;;;;;;;4.10;3.80;;;15.60;73.80;;;;;;5005892;28;20722;-68
2020/12/05 08:16:04;;;;;;;5.13;4.72;;;15.80;72.90;;;;;;5003809;28;20596;-68
2020/12/05 08:18:31;;;;;;;4.40;4.10;;;16.20;73.90;;;;;;5003881;28;20176;-68
2020/12/05 08:20:57;;;;;;;5.35;3.17;;;16.50;72.10;;;;;;5005123;28;20269;-68
2020/12/05 08:23:30;;;;;;;4.03;3.83;;;16.70;70.80;;;;;;5006685;28;20193;-69
2020/12/05 08:26:05;;;;;;;4.57;4.18;;;16.90;70.80;;;;;;5006295;28;20181;-69
2020/12/05 08:28:37;;;;;;;3.50;3.30;;;17.00;69.90;;;;;;5006200;28;20200;-69
2020/12/05 08:31:13;;;;;;;3.30;3.10;;;17.30;70.50;;;;;;5006223;28;20181;-69
2020/12/05 08:33:42;;;;;;;4.22;3.92;;;17.60;67.70;;;;;;4998584;28;20303;-69
2020/12/05 08:36:36;;;;;;;3.20;3.08;;;17.70;68.50;;;;;;4984525;28;20181;-69
2020/12/05 08:39:06;;;;;;;3.75;3.42;;;17.50;67.40;;;;;;4982048;28;20201;-69
2020/12/05 08:41:54;;;;;;;3.65;3.42;;;17.60;68.50;;;;;;4981165;28;20211;-70
2020/12/05 08:44:21;;;;;;;3.65;2.92;;;17.70;67.40;;;;;;4987045;28;20585;-70
2020/12/05 08:47:03;;;;;;;3.58;3.38;;;17.70;67.00;;;;;;4987513;28;20189;-70
2020/12/05 08:49:38;;;;;;;2.92;2.70;;;17.80;65.90;;;;;;4986069;28;20174;-69
2020/12/05 08:52:05;;;;;;;2.97;2.88;;;17.70;66.20;;;;;;4985449;28;20200;-69
2020/12/05 08:54:32;;;;;;;3.55;3.28;;;17.50;67.90;;;;;;4989059;28;20214;-72
2020/12/05 08:57:17;;;;;;;3.40;3.10;;;17.60;67.60;;;;;;4987418;28;20205;-70
2020/12/05 08:59:43;;;;;;;3.28;3.15;;;17.70;67.80;;;;;;4987896;28;20377;-69
2020/12/05 09:02:10;;;;;;;3.00;2.85;;;17.70;66.60;;;;;;4982080;28;20205;-70
2020/12/05 09:04:37;;;;;;;3.47;3.28;;;17.90;66.30;;;;;;4987660;28;20628;-70
2020/12/05 09:07:19;;;;;;;3.45;3.33;;;17.90;67.50;;;;;;4984933;28;20544;-70
2020/12/05 09:09:46;;;;;;;3.80;3.53;;;17.30;65.60;;;;;;4988204;28;20158;-70
2020/12/05 09:12:17;;;;;;;3.72;3.42;;;16.60;67.10;;;;;;4989834;28;20188;-70
2020/12/05 09:14:47;;;;;;;3.97;3.78;;;16.10;69.50;;;;;;4989710;28;20177;-70
2020/12/05 09:17:30;;;;;;;4.95;4.50;;;15.80;70.60;;;;;;4988788;28;20269;-71
2020/12/05 09:20:19;;;;;;;4.60;4.25;;;15.50;71.40;;;;;;4990012;28;20188;-70
2020/12/05 09:22:47;;;;;;;3.72;3.53;;;15.30;71.50;;;;;;4990692;28;20684;-70
2020/12/05 09:25:31;;;;;;;4.40;4.13;;;15.00;71.80;;;;;;4990943;28;20181;-69
2020/12/05 09:27:58;;;;;;;4.18;3.78;;;14.70;72.30;;;;;;4991292;28;20209;-69
2020/12/05 09:30:25;;;;;;;4.43;4.05;;;14.50;73.30;;;;;;4991346;28;20198;-69
2020/12/05 09:32:52;;;;;;;4.90;4.45;;;14.30;73.60;;;;;;4990777;28;20460;-68
2020/12/05 09:35:20;;;;;;;4.95;4.55;;;14.10;73.80;;;;;;4988793;28;20166;-69
2020/12/05 09:37:46;;;;;;;4.80;4.40;;;14.00;74.70;;;;;;4988356;28;20209;-68
2020/12/05 09:40:15;;;;;;;3.75;3.45;;;13.90;74.40;;;;;;4990816;28;20189;-68
2020/12/05 09:42:42;;;;;;;4.68;4.28;;;13.70;74.30;;;;;;4986219;28;20300;-68
2020/12/05 09:45:09;;;;;;;4.55;3.65;;;13.50;74.80;;;;;;4969801;28;20201;-68
2020/12/05 09:47:35;;;;;;;3.72;3.42;;;13.40;75.30;;;;;;4972942;28;20206;-68
2020/12/05 09:50:01;;;;;;;3.90;3.60;;;13.30;75.40;;;;;;4990665;28;20492;-68
2020/12/05 09:52:27;;;;;;;2.92;2.83;;;13.00;75.70;;;;;;4981455;28;20205;-69
2020/12/05 09:54:53;;;;;;;4.03;3.72;;;12.70;76.60;;;;;;4987364;28;20165;-69
2020/12/05 09:57:19;;;;;;;3.38;3.05;;;12.50;77.40;;;;;;4987432;28;20512;-69
2020/12/05 09:59:45;;;;;;;3.95;3.55;;;12.50;78.00;;;;;;4987045;28;20178;-70
2020/12/05 10:02:11;;;;;;;4.13;3.88;;;12.80;78.40;;;;;;4982904;28;20600;-69
2020/12/05 10:04:38;;;;;;;4.28;3.95;;;13.10;78.20;;;;;;4966494;28;20297;-69
2020/12/05 10:07:04;;;;;;;4.35;4.00;;;13.50;77.70;;;;;;4978613;28;20636;-69
2020/12/05 10:09:30;;;;;;;4.38;3.97;;;14.30;76.50;;;;;;4968487;28;20174;-69
2020/12/05 10:11:56;;;;;;;4.78;4.45;;;14.90;75.20;;;;;;4984970;28;20267;-69
2020/12/05 10:14:22;;;;;;;3.85;3.63;;;15.70;73.50;;;;;;4986379;28;20213;-69
2020/12/05 10:16:47;;;;;;;3.97;3.67;;;16.50;71.20;;;;;;4987972;28;20197;-68
2020/12/05 10:19:13;;;;;;;3.92;3.63;;;17.30;69.90;;;;;;4988159;28;20227;-70
2020/12/05 10:21:40;;;;;;;3.85;3.65;;;17.80;68.10;;;;;;4985181;28;20540;-70
2020/12/05 10:24:06;;;;;;;3.53;3.33;;;18.30;66.80;;;;;;4974677;28;20503;-71
2020/12/05 10:26:32;;;;;;;3.28;3.17;;;18.30;66.60;;;;;;4983909;28;20263;-70
2020/12/05 10:28:57;;;;;;;3.13;3.03;;;18.80;66.60;;;;;;4988501;28;20562;-70
2020/12/05 10:31:23;;;;;;;3.90;3.70;;;19.30;65.70;;;;;;4988166;28;20284;-70
2020/12/05 10:33:49;;;;;;;3.72;3.53;;;19.80;64.90;;;;;;4984108;28;20677;-70
2020/12/05 10:36:19;;;;;;;3.20;3.10;;;20.30;64.00;;;;;;4988332;28;20205;-69
2020/12/05 10:38:45;;;;;;;4.60;4.20;;;20.70;63.20;;;;;;4986412;28;20659;-69
2020/12/05 10:41:12;;;;;;;3.70;3.50;;;20.90;61.60;;;;;;4985333;28;20170;-69
2020/12/05 10:43:38;;;;;;;4.30;4.00;;;20.80;62.80;;;;;;4986103;28;20193;-69
2020/12/05 10:46:03;;;;;;;4.93;4.35;;;20.90;62.10;;;;;;4985355;28;20174;-68
2020/12/05 10:48:29;;;;;;;5.03;4.55;;;21.10;63.20;;;;;;4986778;28;20192;-70
2020/12/05 10:51:01;;;;;;;5.53;5.03;;;21.20;63.50;;;;;;4986471;28;20194;-69
2020/12/05 10:53:27;;;;;;;6.75;5.20;;;21.40;61.70;;;;;;4981489;28;20212;-68
2020/12/05 10:55:53;;;;;;;4.78;4.47;;;21.30;61.00;;;;;;4986170;28;20178;-68
2020/12/05 10:58:20;;;;;;;4.38;4.07;;;21.30;62.50;;;;;;4985208;28;20269;-74
2020/12/05 11:00:47;;;;;;;3.78;3.55;;;21.60;61.70;;;;;;4985775;28;20228;-75
2020/12/05 11:03:13;;;;;;;3.60;3.40;;;21.30;60.80;;;;;;4985928;28;20581;-75
2020/12/05 11:05:39;;;;;;;3.97;3.72;;;20.80;62.10;;;;;;4986197;28;20181;-75
2020/12/05 11:08:05;;;;;;;4.25;3.95;;;20.30;61.30;;;;;;4984656;28;20241;-75
2020/12/05 11:10:30;;;;;;;4.32;4.00;;;20.20;62.70;;;;;;4986286;28;20556;-76
2020/12/05 11:12:56;;;;;;;4.60;4.30;;;20.30;61.80;;;;;;4986581;28;20320;-75
2020/12/05 11:15:22;;;;;;;4.90;4.45;;;20.30;61.80;;;;;;4987261;28;20174;-76
2020/12/05 11:17:47;;;;;;;4.55;4.20;;;19.90;62.80;;;;;;4997051;28;20632;-75
2020/12/05 11:20:14;;;;;;;5.30;4.72;;;20.00;63.30;;;;;;4983634;28;20175;-75
2020/12/05 11:22:40;;;;;;;5.20;4.80;;;20.30;63.80;;;;;;4982887;28;20197;-74
2020/12/05 11:25:05;;;;;;;4.75;4.35;;;20.70;63.30;;;;;;4979734;28;20201;-74
2020/12/05 11:27:31;;;;;;;5.28;4.35;;;21.10;62.50;;;;;;4985318;28;20202;-74
2020/12/05 11:29:57;;;;;;;4.25;3.92;;;21.30;61.80;;;;;;4988953;28;20166;-74
2020/12/05 11:32:41;;;;;;;4.95;4.55;;;21.60;60.50;;;;;;5002484;28;20634;-74
2020/12/05 11:35:07;;;;;;;5.13;4.70;;;21.60;60.60;;;;;;4987214;28;20257;-74
2020/12/05 11:37:33;;;;;;;4.85;4.55;;;21.70;60.60;;;;;;4988463;28;20201;-74
2020/12/05 11:39:59;;;;;;;4.60;4.28;;;21.70;59.90;;;;;;4987442;28;20256;-74
2020/12/05 11:42:32;;;;;;;5.05;4.72;;;21.40;60.80;;;;;;4988346;28;20193;-75
2020/12/05 11:44:58;;;;;;;4.45;4.25;;;21.20;61.50;;;;;;5003601;28;20495;-74
2020/12/05 11:47:25;;;;;;;5.40;5.00;;;21.20;60.70;;;;;;4987632;28;20196;-74
2020/12/05 11:49:50;;;;;;;4.75;4.43;;;20.80;60.20;;;;;;4982982;28;20573;-73
2020/12/05 11:52:16;;;;;;;4.63;4.32;;;19.70;61.30;;;;;;4967347;28;20340;-73
2020/12/05 11:54:42;;;;;;;4.82;4.55;;;18.30;64.50;;;;;;4968853;28;20193;-73
2020/12/05 11:57:07;;;;;;;6.35;5.72;;;17.60;65.80;;;;;;4968825;28;20189;-73
2020/12/05 11:59:33;;;;;;;4.80;4.35;;;17.00;67.00;;;;;;4967725;28;20601;-73
2020/12/05 12:01:59;;;;;;;5.43;5.03;;;16.50;68.00;;;;;;4968787;28;20194;-73
2020/12/05 12:04:25;;;;;;;5.28;4.88;;;16.00;69.00;;;;;;4968789;28;20178;-73
2020/12/05 12:06:50;;;;;;;5.55;4.90;;;15.60;70.10;;;;;;4970705;28;20198;-73
2020/12/05 12:09:17;;;;;;;5.40;4.97;;;15.20;71.10;;;;;;4983993;28;20213;-74
2020/12/05 12:11:43;;;;;;;5.15;4.75;;;15.00;71.70;;;;;;4988097;28;20228;-73
2020/12/05 12:14:08;;;;;;;6.10;5.55;;;14.80;72.30;;;;;;4987723;28;20209;-73
2020/12/05 12:16:34;;;;;;;5.70;5.18;;;14.70;72.70;;;;;;4972373;28;20210;-73
2020/12/05 12:19:00;;;;;;;5.18;4.65;;;14.60;73.10;;;;;;4993401;28;20631;-73
2020/12/05 12:21:26;;;;;;;7.00;5.88;;;14.40;73.20;;;;;;4970049;28;20205;-73
2020/12/05 12:23:53;;;;;;;6.90;5.50;;;14.30;73.80;;;;;;4988190;28;20454;-73
2020/12/05 12:26:19;;;;;;;6.57;5.60;;;14.20;74.10;;;;;;4988286;28;20312;-73
2020/12/05 12:28:45;;;;;;;6.25;5.65;;;14.00;74.70;;;;;;4985775;28;20718;-73
2020/12/05 12:31:11;;;;;;;6.20;5.65;;;13.80;75.50;;;;;;4984381;28;20185;-73
2020/12/05 12:33:38;;;;;;;7.95;4.82;;;13.60;75.80;;;;;;4987980;28;20193;-73
2020/12/05 12:36:04;;;;;;;6.35;5.72;;;13.40;76.50;;;;;;4986954;28;20562;-73
2020/12/05 12:38:29;;;;;;;6.90;6.25;;;13.30;76.60;;;;;;4987420;28;20275;-73
2020/12/05 12:40:55;;;;;;;5.40;4.72;;;13.40;76.90;;;;;;4987966;28;20202;-73
2020/12/05 12:43:21;;;;;;;5.13;4.63;;;13.60;76.40;;;;;;4987553;28;20258;-73
2020/12/05 12:45:47;;;;;;;6.22;5.65;;;13.70;76.10;;;;;;4985180;28;20287;-73
2020/12/05 12:50:40;;;;;;;5.28;4.80;;;13.70;76.00;;;;;;4988687;28;20186;-73
2020/12/05 12:53:06;;;;;;;7.25;5.60;;;13.50;76.50;;;;;;4990105;28;20296;-76
2020/12/05 12:55:32;;;;;;;6.82;5.93;;;13.50;76.70;;;;;;4989655;28;20264;-75
2020/12/05 12:58:07;;;;;;;6.03;5.43;;;13.60;76.70;;;;;;4991262;28;20213;-76
2020/12/05 13:00:33;;;;;;;6.22;5.60;;;13.60;76.50;;;;;;4990272;28;20207;-76